createdAt,value
2017-05-30T00:00:35.994Z,1006.45
2017-05-30T00:02:37.536Z,1006.42
2017-05-30T00:04:39.567Z,1006.54
2017-05-30T00:06:41.381Z,1006.59
2017-05-30T00:08:43.152Z,1006.68
2017-05-30T00:10:44.929Z,1006.68
2017-05-30T00:12:46.672Z,1006.61
2017-05-30T00:14:48.715Z,1006.62
2017-05-30T00:16:50.623Z,1006.60
2017-05-30T00:18:52.381Z,1006.68
2017-05-30T00:20:54.120Z,1006.70
2017-05-30T00:22:55.999Z,1006.69
2017-05-30T00:24:57.744Z,1006.80
2017-05-30T00:26:59.540Z,1006.88
2017-05-30T00:29:01.111Z,1006.82
2017-05-30T00:31:02.665Z,1006.68
2017-05-30T00:33:04.568Z,1006.62
2017-05-30T00:35:06.411Z,1006.69
2017-05-30T00:37:08.218Z,1006.78
2017-05-30T00:39:09.946Z,1006.86
2017-05-30T00:41:11.731Z,1006.86
2017-05-30T00:43:13.555Z,1006.85
2017-05-30T00:45:15.330Z,1006.80
2017-05-30T00:47:17.170Z,1006.80
2017-05-30T00:49:19.019Z,1006.82
2017-05-30T00:51:20.768Z,1006.77
2017-05-30T00:53:22.620Z,1006.72
2017-05-30T00:55:24.426Z,1006.62
2017-05-30T00:57:26.205Z,1006.54
2017-05-30T00:59:28.144Z,1006.49
2017-05-30T01:01:29.931Z,1006.51
2017-05-30T01:03:31.727Z,1006.53
2017-05-30T01:05:33.448Z,1006.49
2017-05-30T01:07:34.972Z,1006.44
2017-05-30T01:09:36.594Z,1006.52
2017-05-30T01:11:38.168Z,1006.50
2017-05-30T01:13:39.902Z,1006.55
2017-05-30T01:15:41.659Z,1006.54
2017-05-30T01:17:43.214Z,1006.58
2017-05-30T01:19:45.215Z,1006.63
2017-05-30T01:21:46.900Z,1006.65
2017-05-30T01:23:48.755Z,1006.61
2017-05-30T01:25:50.307Z,1006.58
2017-05-30T01:27:52.037Z,1006.50
2017-05-30T01:29:54.010Z,1006.46
2017-05-30T01:31:55.937Z,1006.50
2017-05-30T01:33:57.695Z,1006.54
2017-05-30T01:35:59.536Z,1006.52
2017-05-30T01:38:01.289Z,1006.46
2017-05-30T01:40:03.084Z,1006.46
2017-05-30T01:42:04.868Z,1006.44
2017-05-30T01:44:06.750Z,1006.41
2017-05-30T01:46:08.415Z,1006.43
2017-05-30T01:48:09.988Z,1006.44
2017-05-30T01:50:11.535Z,1006.49
2017-05-30T01:52:13.268Z,1006.57
2017-05-30T01:54:15.196Z,1006.64
2017-05-30T01:56:16.958Z,1006.68
2017-05-30T01:58:18.503Z,1006.60
2017-05-30T02:00:20.512Z,1006.58
2017-05-30T02:02:22.423Z,1006.59
2017-05-30T02:04:24.261Z,1006.61
2017-05-30T02:06:26.089Z,1006.61
2017-05-30T02:08:27.976Z,1006.58
2017-05-30T02:10:29.755Z,1006.50
2017-05-30T02:12:31.477Z,1006.55
2017-05-30T02:14:33.285Z,1006.64
2017-05-30T02:16:34.842Z,1006.64
2017-05-30T02:18:36.713Z,1006.68
2017-05-30T02:20:38.486Z,1006.65
2017-05-30T02:22:40.492Z,1006.64
2017-05-30T02:24:42.097Z,1006.64
2017-05-30T02:26:43.734Z,1006.68
2017-05-30T02:28:45.395Z,1006.73
2017-05-30T02:30:47.013Z,1006.73
2017-05-30T02:32:48.770Z,1006.73
2017-05-30T02:34:50.729Z,1006.72
2017-05-30T02:36:52.538Z,1006.76
2017-05-30T02:38:54.359Z,1006.87
2017-05-30T02:40:55.881Z,1006.85
2017-05-30T02:42:57.676Z,1006.83
2017-05-30T02:44:59.509Z,1006.79
2017-05-30T02:47:01.102Z,1006.78
2017-05-30T02:49:02.848Z,1006.81
2017-05-30T02:51:04.940Z,1006.84
2017-05-30T02:53:06.750Z,1006.87
2017-05-30T02:55:08.565Z,1006.84
2017-05-30T02:57:10.144Z,1006.78
2017-05-30T02:59:11.933Z,1006.77
2017-05-30T03:01:13.675Z,1006.87
2017-05-30T03:03:15.877Z,1006.82
2017-05-30T03:05:17.647Z,1006.85
2017-05-30T03:07:19.565Z,1006.90
2017-05-30T03:09:21.685Z,1006.86
2017-05-30T03:11:23.244Z,1006.94
2017-05-30T03:13:24.900Z,1006.99
2017-05-30T03:15:26.894Z,1007.00
2017-05-30T03:17:28.694Z,1006.99
2017-05-30T03:19:30.285Z,1006.97
2017-05-30T03:21:32.041Z,1007.02
2017-05-30T03:23:34.051Z,1007.02
2017-05-30T03:25:35.677Z,1007.02
2017-05-30T03:27:37.427Z,1007.04
2017-05-30T03:29:39.406Z,1007.09
2017-05-30T03:31:41.438Z,1007.07
2017-05-30T03:33:43.100Z,1007.06
2017-05-30T03:35:44.828Z,1007.07
2017-05-30T03:37:46.492Z,1007.07
2017-05-30T03:39:48.087Z,1007.05
2017-05-30T03:41:50.066Z,1007.08
2017-05-30T03:43:51.918Z,1007.03
2017-05-30T03:45:53.939Z,1007.13
2017-05-30T03:47:55.437Z,1007.10
2017-05-30T03:49:57.289Z,1007.10
2017-05-30T03:51:59.645Z,1007.11
2017-05-30T03:54:01.383Z,1007.13
2017-05-30T03:56:02.990Z,1007.20
2017-05-30T03:58:04.786Z,1007.20
2017-05-30T04:00:06.712Z,1007.25
2017-05-30T04:02:08.709Z,1007.28
2017-05-30T04:04:10.277Z,1007.30
2017-05-30T04:06:11.956Z,1007.32
2017-05-30T04:08:13.808Z,1007.28
2017-05-30T04:10:15.795Z,1007.21
2017-05-30T04:12:17.575Z,1007.17
2017-05-30T04:14:19.359Z,1007.26
2017-05-30T04:16:21.376Z,1007.26
2017-05-30T04:18:23.151Z,1007.31
2017-05-30T04:20:24.905Z,1007.33
2017-05-30T04:22:26.738Z,1007.29
2017-05-30T04:24:28.409Z,1007.34
2017-05-30T04:26:30.384Z,1007.36
2017-05-30T04:28:32.396Z,1007.41
2017-05-30T04:30:34.018Z,1007.47
2017-05-30T04:32:35.976Z,1007.49
2017-05-30T04:34:37.752Z,1007.47
2017-05-30T04:36:39.509Z,1007.51
2017-05-30T04:38:41.288Z,1007.49
2017-05-30T04:40:43.049Z,1007.48
2017-05-30T04:42:45.165Z,1007.49
2017-05-30T04:44:46.960Z,1007.54
2017-05-30T04:46:48.547Z,1007.51
2017-05-30T04:48:50.183Z,1007.54
2017-05-30T04:50:52.142Z,1007.53
2017-05-30T04:52:53.931Z,1007.59
2017-05-30T04:54:55.707Z,1007.60
2017-05-30T04:56:57.445Z,1007.58
2017-05-30T04:58:59.199Z,1007.58
2017-05-30T05:01:01.123Z,1007.53
2017-05-30T05:03:02.931Z,1007.56
2017-05-30T05:05:04.518Z,1007.50
2017-05-30T05:07:06.491Z,1007.48
2017-05-30T05:09:08.021Z,1007.48
2017-05-30T05:11:09.560Z,1007.49
2017-05-30T05:13:11.379Z,1007.52
2017-05-30T05:15:13.262Z,1007.57
2017-05-30T05:17:14.865Z,1007.64
2017-05-30T05:19:16.637Z,1007.65
2017-05-30T05:21:18.422Z,1007.69
2017-05-30T05:23:20.642Z,1007.65
2017-05-30T05:25:22.215Z,1007.69
2017-05-30T05:27:24.143Z,1007.68
2017-05-30T05:29:26.134Z,1007.69
2017-05-30T05:31:28.001Z,1007.69
2017-05-30T05:33:29.949Z,1007.69
2017-05-30T05:35:31.794Z,1007.73
2017-05-30T05:37:33.639Z,1007.71
2017-05-30T05:39:35.660Z,1007.75
2017-05-30T05:41:37.397Z,1007.76
2017-05-30T05:43:39.495Z,1007.74
2017-05-30T05:45:41.310Z,1007.72
2017-05-30T05:47:42.863Z,1007.72
2017-05-30T05:49:44.418Z,1007.84
2017-05-30T05:51:45.968Z,1007.85
2017-05-30T05:53:47.552Z,1007.89
2017-05-30T05:55:49.089Z,1007.92
2017-05-30T05:57:50.910Z,1007.89
2017-05-30T05:59:52.727Z,1007.95
2017-05-30T06:01:54.291Z,1007.97
2017-05-30T06:03:56.097Z,1008.00
2017-05-30T06:05:57.819Z,1007.98
2017-05-30T06:07:59.726Z,1008.01
2017-05-30T06:10:01.505Z,1008.03
2017-05-30T06:12:03.582Z,1008.03
2017-05-30T06:14:05.362Z,1008.09
2017-05-30T06:16:07.432Z,1008.07
2017-05-30T06:18:09.365Z,1008.17
2017-05-30T06:20:11.090Z,1008.11
2017-05-30T06:22:12.650Z,1008.09
2017-05-30T06:24:14.194Z,1008.16
2017-05-30T06:26:15.777Z,1008.22
2017-05-30T06:28:17.355Z,1008.26
2017-05-30T06:30:18.932Z,1008.28
2017-05-30T06:32:20.492Z,1008.26
2017-05-30T06:34:22.024Z,1008.24
2017-05-30T06:36:24.016Z,1008.22
2017-05-30T06:38:25.604Z,1008.20
2017-05-30T06:40:27.372Z,1008.21
2017-05-30T06:42:29.081Z,1008.19
2017-05-30T06:44:31.201Z,1008.18
2017-05-30T06:46:33.092Z,1008.20
2017-05-30T06:48:34.946Z,1008.29
2017-05-30T06:50:36.462Z,1008.34
2017-05-30T06:52:38.002Z,1008.24
2017-05-30T06:54:39.541Z,1008.32
2017-05-30T06:56:41.381Z,1008.29
2017-05-30T06:58:42.922Z,1008.31
2017-05-30T07:00:44.482Z,1008.30
2017-05-30T07:02:46.071Z,1008.32
2017-05-30T07:04:47.607Z,1008.35
2017-05-30T07:06:49.532Z,1008.30
2017-05-30T07:08:51.431Z,1008.37
2017-05-30T07:10:52.994Z,1008.38
2017-05-30T07:12:54.556Z,1008.45
2017-05-30T07:14:56.382Z,1008.44
2017-05-30T07:16:58.422Z,1008.50
2017-05-30T07:19:00.000Z,1008.49
2017-05-30T07:21:01.796Z,1008.56
2017-05-30T07:23:03.381Z,1008.51
2017-05-30T07:25:05.173Z,1008.49
2017-05-30T07:27:06.993Z,1008.56
2017-05-30T07:29:08.530Z,1008.54
2017-05-30T07:31:10.447Z,1008.57
2017-05-30T07:33:11.955Z,1008.57
2017-05-30T07:35:13.463Z,1008.56
2017-05-30T07:37:15.379Z,1008.55
2017-05-30T07:39:17.302Z,1008.47
2017-05-30T07:42:05.960Z,1008.45
2017-05-30T07:44:50.873Z,1008.47
2017-05-30T07:47:38.648Z,1008.49
2017-05-30T07:50:27.537Z,1008.43
2017-05-30T07:53:13.181Z,1008.44
2017-05-30T07:55:56.856Z,1008.48
2017-05-30T07:58:41.252Z,1008.42
2017-05-30T08:01:25.694Z,1008.39
2017-05-30T08:04:09.200Z,1008.43
2017-05-30T08:06:56.387Z,1008.47
2017-05-30T08:10:20.110Z,1008.49
2017-05-30T08:12:22.197Z,1008.43
2017-05-30T08:15:08.572Z,1008.48
2017-05-30T08:17:51.439Z,1008.43
2017-05-30T08:19:52.989Z,1008.45
2017-05-30T08:22:40.136Z,1008.43
2017-05-30T08:25:29.108Z,1008.48
2017-05-30T08:28:13.626Z,1008.49
2017-05-30T08:30:56.784Z,1008.48
2017-05-30T08:33:41.371Z,1008.58
2017-05-30T08:36:25.892Z,1008.57
2017-05-30T08:39:51.741Z,1008.58
2017-05-30T08:42:34.456Z,1008.56
2017-05-30T08:45:18.361Z,1008.62
2017-05-30T08:48:01.420Z,1008.61
2017-05-30T08:50:50.645Z,1008.51
2017-05-30T08:53:33.871Z,1008.56
2017-05-30T08:56:18.477Z,1008.54
2017-05-30T08:59:12.771Z,1008.62
2017-05-30T09:01:57.838Z,1008.64
2017-05-30T09:04:42.307Z,1008.63
2017-05-30T09:06:45.625Z,1008.64
2017-05-30T09:09:30.127Z,1008.72
2017-05-30T09:11:31.717Z,1008.73
2017-05-30T09:14:13.428Z,1008.77
2017-05-30T09:17:37.887Z,1008.76
2017-05-30T09:20:21.834Z,1008.84
2017-05-30T09:23:06.887Z,1008.79
2017-05-30T09:27:11.495Z,1008.85
2017-05-30T09:29:13.790Z,1008.82
2017-05-30T09:31:57.617Z,1008.87
2017-05-30T09:33:59.445Z,1008.81
2017-05-30T09:36:01.063Z,1008.82
2017-05-30T09:38:02.614Z,1008.85
2017-05-30T09:40:04.264Z,1008.83
2017-05-30T09:42:06.201Z,1008.89
2017-05-30T09:44:08.103Z,1008.90
2017-05-30T09:46:09.882Z,1008.89
2017-05-30T09:48:11.793Z,1008.86
2017-05-30T09:50:14.223Z,1008.91
2017-05-30T09:52:16.546Z,1008.88
2017-05-30T09:54:18.490Z,1008.89
2017-05-30T09:56:20.350Z,1008.94
2017-05-30T09:58:22.258Z,1008.92
2017-05-30T10:00:24.247Z,1008.95
2017-05-30T10:02:26.235Z,1009.02
2017-05-30T10:04:28.106Z,1008.97
2017-05-30T10:06:30.496Z,1008.99
2017-05-30T10:08:32.343Z,1008.98
2017-05-30T10:10:34.171Z,1008.98
2017-05-30T10:12:35.975Z,1009.00
2017-05-30T10:14:38.498Z,1008.96
2017-05-30T10:16:40.361Z,1009.04
2017-05-30T10:18:42.221Z,1009.02
2017-05-30T10:20:44.095Z,1009.08
2017-05-30T10:22:46.007Z,1009.08
2017-05-30T10:24:48.493Z,1009.10
2017-05-30T10:26:50.309Z,1009.13
2017-05-30T10:28:52.580Z,1009.08
2017-05-30T10:31:35.582Z,1009.07
2017-05-30T10:33:37.794Z,1009.10
2017-05-30T10:35:39.833Z,1009.11
2017-05-30T10:37:41.505Z,1009.06
2017-05-30T10:39:43.844Z,1009.07
2017-05-30T10:41:45.677Z,1009.11
2017-05-30T10:43:48.067Z,1009.07
2017-05-30T10:45:50.061Z,1009.12
2017-05-30T10:47:51.876Z,1009.10
2017-05-30T10:49:53.720Z,1009.17
2017-05-30T10:51:55.500Z,1009.25
2017-05-30T10:53:57.386Z,1009.18
2017-05-30T10:55:59.183Z,1009.12
2017-05-30T10:58:01.073Z,1009.09
2017-05-30T11:00:02.992Z,1009.09
2017-05-30T11:02:04.814Z,1009.11
2017-05-30T11:04:49.436Z,1009.08
2017-05-30T11:06:51.176Z,1009.01
2017-05-30T11:08:52.991Z,1009.05
2017-05-30T11:10:54.601Z,1009.05
2017-05-30T11:12:56.266Z,1009.01
2017-05-30T11:15:38.992Z,1008.97
2017-05-30T11:17:40.721Z,1009.00
2017-05-30T11:20:23.135Z,1009.06
2017-05-30T11:22:24.842Z,1009.01
2017-05-30T11:24:26.695Z,1008.98
2017-05-30T11:26:28.473Z,1008.96
2017-05-30T11:28:30.420Z,1009.06
2017-05-30T11:30:32.299Z,1009.08
2017-05-30T11:32:34.220Z,1009.04
2017-05-30T11:34:36.036Z,1009.04
2017-05-30T11:36:37.903Z,1009.07
2017-05-30T11:38:39.819Z,1009.06
2017-05-30T11:41:22.557Z,1008.97
2017-05-30T11:44:05.162Z,1009.05
2017-05-30T11:46:06.623Z,1008.96
2017-05-30T11:48:08.310Z,1008.97
2017-05-30T11:50:09.971Z,1008.98
2017-05-30T11:52:12.601Z,1008.99
2017-05-30T11:54:14.512Z,1009.01
2017-05-30T11:56:16.343Z,1009.04
2017-05-30T11:58:18.051Z,1009.05
2017-05-30T12:01:02.125Z,1009.04
2017-05-30T12:03:03.561Z,1008.97
2017-05-30T12:05:05.412Z,1008.96
2017-05-30T12:07:07.154Z,1008.95
2017-05-30T12:09:09.177Z,1009.01
2017-05-30T12:11:10.900Z,1008.95
2017-05-30T12:13:12.732Z,1008.86
2017-05-30T12:15:14.738Z,1008.84
2017-05-30T12:17:16.471Z,1008.80
2017-05-30T12:19:18.398Z,1008.76
2017-05-30T12:21:20.266Z,1008.73
2017-05-30T12:23:21.964Z,1008.78
2017-05-30T12:25:23.977Z,1008.79
2017-05-30T12:27:25.752Z,1008.80
2017-05-30T12:29:27.542Z,1008.80
2017-05-30T12:31:29.039Z,1008.84
2017-05-30T12:33:30.545Z,1008.86
2017-05-30T12:35:32.875Z,1008.82
2017-05-30T12:37:34.405Z,1008.77
2017-05-30T12:39:35.922Z,1008.78
2017-05-30T12:41:37.457Z,1008.75
2017-05-30T12:43:38.969Z,1008.75
2017-05-30T12:45:40.509Z,1008.80
2017-05-30T12:47:42.114Z,1008.75
2017-05-30T12:49:44.094Z,1008.73
2017-05-30T12:51:46.861Z,1008.72
2017-05-30T12:53:49.174Z,1008.71
2017-05-30T12:55:50.822Z,1008.64
2017-05-30T12:57:52.355Z,1008.66
2017-05-30T12:59:53.876Z,1008.66
2017-05-30T13:01:55.416Z,1008.65
2017-05-30T13:03:56.931Z,1008.64
2017-05-30T13:05:59.223Z,1008.58
2017-05-30T13:08:01.113Z,1008.59
2017-05-30T13:10:03.445Z,1008.62
2017-05-30T13:12:05.689Z,1008.60
2017-05-30T13:14:07.860Z,1008.59
2017-05-30T13:16:09.782Z,1008.57
2017-05-30T13:18:11.757Z,1008.57
2017-05-30T13:20:13.898Z,1008.61
2017-05-30T13:22:15.405Z,1008.54
2017-05-30T13:24:16.918Z,1008.62
2017-05-30T13:26:18.905Z,1008.61
2017-05-30T13:28:21.051Z,1008.59
2017-05-30T13:30:23.158Z,1008.62
2017-05-30T13:32:25.207Z,1008.59
2017-05-30T13:34:27.540Z,1008.53
2017-05-30T13:36:29.156Z,1008.50
2017-05-30T13:38:30.782Z,1008.53
2017-05-30T13:40:32.618Z,1008.52
2017-05-30T13:42:34.886Z,1008.46
2017-05-30T13:44:37.342Z,1008.46
2017-05-30T13:46:39.558Z,1008.53
2017-05-30T13:48:41.843Z,1008.47
2017-05-30T13:50:44.191Z,1008.45
2017-05-30T13:52:46.111Z,1008.49
2017-05-30T13:54:48.135Z,1008.42
2017-05-30T13:56:49.752Z,1008.42
2017-05-30T13:58:51.620Z,1008.41
2017-05-30T14:00:53.135Z,1008.41
2017-05-30T14:02:54.748Z,1008.49
2017-05-30T14:04:56.226Z,1008.51
2017-05-30T14:06:57.726Z,1008.53
2017-05-30T14:08:59.213Z,1008.55
2017-05-30T14:11:01.565Z,1008.58
2017-05-30T14:13:03.167Z,1008.53
2017-05-30T14:15:04.650Z,1008.58
2017-05-30T14:17:06.869Z,1008.58
2017-05-30T14:19:08.714Z,1008.58
2017-05-30T14:21:10.295Z,1008.62
2017-05-30T14:23:12.666Z,1008.62
2017-05-30T14:25:14.815Z,1008.66
2017-05-30T14:27:16.350Z,1008.62
2017-05-30T14:29:17.826Z,1008.63
2017-05-30T14:31:19.309Z,1008.67
2017-05-30T14:33:21.187Z,1008.65
2017-05-30T14:35:22.689Z,1008.61
2017-05-30T14:37:24.304Z,1008.52
2017-05-30T14:39:26.645Z,1008.53
2017-05-30T14:41:28.633Z,1008.58
2017-05-30T14:43:30.833Z,1008.57
2017-05-30T14:45:32.363Z,1008.64
2017-05-30T14:47:34.252Z,1008.66
2017-05-30T14:49:36.364Z,1008.64
2017-05-30T14:51:38.570Z,1008.68
2017-05-30T14:53:40.464Z,1008.68
2017-05-30T14:55:42.518Z,1008.65
2017-05-30T14:57:44.067Z,1008.69
2017-05-30T14:59:46.255Z,1008.69
2017-05-30T15:01:48.295Z,1008.67
2017-05-30T15:03:49.883Z,1008.67
2017-05-30T15:05:51.370Z,1008.63
2017-05-30T15:07:53.518Z,1008.59
2017-05-30T15:09:55.200Z,1008.66
2017-05-30T15:11:57.367Z,1008.69
2017-05-30T15:13:58.993Z,1008.62
2017-05-30T15:16:00.457Z,1008.67
2017-05-30T15:18:02.321Z,1008.69
2017-05-30T15:20:03.807Z,1008.70
2017-05-30T15:22:05.329Z,1008.71
2017-05-30T15:24:06.836Z,1008.72
2017-05-30T15:26:08.743Z,1008.79
2017-05-30T15:28:10.862Z,1008.80
2017-05-30T15:30:13.037Z,1008.80
2017-05-30T15:32:15.134Z,1008.75
2017-05-30T15:34:17.136Z,1008.75
2017-05-30T15:36:19.516Z,1008.72
2017-05-30T15:38:21.791Z,1008.73
2017-05-30T15:40:23.261Z,1008.76
2017-05-30T15:42:25.317Z,1008.71
2017-05-30T15:44:27.322Z,1008.77
2017-05-30T15:46:30.278Z,1008.84
2017-05-30T15:48:32.565Z,1008.88
2017-05-30T15:50:34.622Z,1008.92
2017-05-30T15:52:36.600Z,1008.93
2017-05-30T15:54:38.102Z,1009.02
2017-05-30T15:56:39.727Z,1009.03
2017-05-30T15:58:41.205Z,1009.08
2017-05-30T16:00:43.135Z,1009.06
2017-05-30T16:02:44.583Z,1009.15
2017-05-30T16:04:46.585Z,1009.20
2017-05-30T16:06:48.477Z,1009.21
2017-05-30T16:08:49.974Z,1009.25
2017-05-30T16:10:51.589Z,1009.27
2017-05-30T16:12:53.569Z,1009.22
2017-05-30T16:14:55.085Z,1009.18
2017-05-30T16:16:56.741Z,1009.15
2017-05-30T16:18:58.314Z,1009.19
2017-05-30T16:20:59.772Z,1009.27
2017-05-30T16:23:01.874Z,1009.29
2017-05-30T16:25:03.862Z,1009.29
2017-05-30T16:27:05.800Z,1009.32
2017-05-30T16:29:07.297Z,1009.35
2017-05-30T16:31:08.787Z,1009.39
2017-05-30T16:33:11.168Z,1009.34
2017-05-30T16:35:13.149Z,1009.45
2017-05-30T16:37:15.069Z,1009.44
2017-05-30T16:39:16.580Z,1009.50
2017-05-30T16:41:18.063Z,1009.55
2017-05-30T16:43:20.295Z,1009.60
2017-05-30T16:45:21.793Z,1009.68
2017-05-30T16:47:23.410Z,1009.65
2017-05-30T16:49:25.143Z,1009.64
2017-05-30T16:51:27.516Z,1009.72
2017-05-30T16:53:29.023Z,1009.73
2017-05-30T16:55:31.135Z,1009.70
2017-05-30T16:57:33.097Z,1009.76
2017-05-30T16:59:35.510Z,1009.79
2017-05-30T17:01:37.510Z,1009.81
2017-05-30T17:03:38.977Z,1009.90
2017-05-30T17:05:41.344Z,1009.98
2017-05-30T17:07:43.349Z,1010.04
2017-05-30T17:09:44.873Z,1010.03
2017-05-30T17:11:47.149Z,1010.00
2017-05-30T17:13:48.683Z,1010.05
2017-05-30T17:15:50.919Z,1010.09
2017-05-30T17:17:52.880Z,1010.09
2017-05-30T17:19:54.430Z,1010.15
2017-05-30T17:21:55.932Z,1010.14
2017-05-30T17:23:58.150Z,1010.15
2017-05-30T17:26:00.202Z,1010.18
2017-05-30T17:28:02.410Z,1010.22
2017-05-30T17:30:04.829Z,1010.23
2017-05-30T17:32:06.772Z,1010.25
2017-05-30T17:34:09.290Z,1010.30
2017-05-30T17:36:10.829Z,1010.28
2017-05-30T17:38:12.318Z,1010.32
2017-05-30T17:40:14.596Z,1010.32
2017-05-30T17:42:16.652Z,1010.32
2017-05-30T17:44:18.199Z,1010.36
2017-05-30T17:46:20.113Z,1010.38
2017-05-30T17:48:22.361Z,1010.40
2017-05-30T17:50:23.855Z,1010.41
2017-05-30T17:52:26.029Z,1010.47
2017-05-30T17:54:28.335Z,1010.50
2017-05-30T17:56:30.587Z,1010.48
2017-05-30T17:58:32.051Z,1010.50
2017-05-30T18:00:33.542Z,1010.48
2017-05-30T18:02:35.119Z,1010.49
2017-05-30T18:04:36.622Z,1010.48
2017-05-30T18:06:39.246Z,1010.54
2017-05-30T18:08:41.456Z,1010.58
2017-05-30T18:10:43.493Z,1010.63
2017-05-30T18:12:45.579Z,1010.65
2017-05-30T18:14:47.126Z,1010.73
2017-05-30T18:16:48.606Z,1010.72
2017-05-30T18:18:50.891Z,1010.77
2017-05-30T18:20:52.969Z,1010.77
2017-05-30T18:22:55.119Z,1010.87
2017-05-30T18:24:56.664Z,1010.87
2017-05-30T18:26:58.907Z,1010.91
2017-05-30T18:29:00.371Z,1010.91
2017-05-30T18:31:03.162Z,1010.91
2017-05-30T18:33:04.672Z,1010.95
2017-05-30T18:35:06.194Z,1010.97
2017-05-30T18:37:07.656Z,1011.01
2017-05-30T18:39:09.219Z,1011.00
2017-05-30T18:41:10.721Z,1011.03
2017-05-30T18:43:12.574Z,1011.07
2017-05-30T18:45:14.472Z,1011.06
2017-05-30T18:47:16.662Z,1011.09
2017-05-30T18:49:18.681Z,1011.06
2017-05-30T18:51:20.233Z,1011.04
2017-05-30T18:53:22.393Z,1011.05
2017-05-30T18:55:24.535Z,1011.04
2017-05-30T18:57:26.675Z,1011.07
2017-05-30T18:59:28.199Z,1011.15
2017-05-30T19:01:29.678Z,1011.25
2017-05-30T19:03:31.519Z,1011.28
2017-05-30T19:05:33.517Z,1011.31
2017-05-30T19:07:34.972Z,1011.34
2017-05-30T19:09:36.486Z,1011.32
2017-05-30T19:11:37.997Z,1011.31
2017-05-30T19:13:39.454Z,1011.41
2017-05-30T19:15:41.655Z,1011.38
2017-05-30T19:17:43.830Z,1011.48
2017-05-30T19:19:45.284Z,1011.59
2017-05-30T19:21:46.763Z,1011.51
2017-05-30T19:23:48.815Z,1011.52
2017-05-30T19:25:50.264Z,1011.58
2017-05-30T19:27:51.740Z,1011.59
2017-05-30T19:29:54.036Z,1011.63
2017-05-30T19:31:55.374Z,1011.66
2017-05-30T19:33:56.955Z,1011.71
2017-05-30T19:35:58.830Z,1011.71
2017-05-30T19:38:01.071Z,1011.75
2017-05-30T19:40:02.607Z,1011.77
2017-05-30T19:42:04.111Z,1011.76
2017-05-30T19:44:05.615Z,1011.78
2017-05-30T19:46:07.090Z,1011.81
2017-05-30T19:48:08.641Z,1011.80
2017-05-30T19:50:10.083Z,1011.86
2017-05-30T19:52:11.618Z,1011.92
2017-05-30T19:54:13.218Z,1011.92
2017-05-30T19:56:15.411Z,1011.99
2017-05-30T19:58:17.368Z,1012.06
2017-05-30T20:00:18.882Z,1012.07
2017-05-30T20:02:20.386Z,1012.14
2017-05-30T20:04:22.544Z,1012.20
2017-05-30T20:06:24.073Z,1012.20
2017-05-30T20:08:26.210Z,1012.28
2017-05-30T20:10:27.819Z,1012.26
2017-05-30T20:12:29.277Z,1012.33
2017-05-30T20:14:30.709Z,1012.36
2017-05-30T20:16:32.295Z,1012.44
2017-05-30T20:18:33.766Z,1012.45
2017-05-30T20:20:36.075Z,1012.47
2017-05-30T20:22:37.691Z,1012.52
2017-05-30T20:24:39.651Z,1012.50
2017-05-30T20:26:42.090Z,1012.52
2017-05-30T20:28:43.797Z,1012.52
2017-05-30T20:30:46.509Z,1012.53
2017-05-30T20:32:48.563Z,1012.55
2017-05-30T20:34:50.068Z,1012.56
2017-05-30T20:36:51.554Z,1012.58
2017-05-30T20:38:53.616Z,1012.59
2017-05-30T20:40:55.614Z,1012.60
2017-05-30T20:42:57.717Z,1012.61
2017-05-30T20:44:59.267Z,1012.60
2017-05-30T20:47:00.753Z,1012.62
2017-05-30T20:49:02.244Z,1012.64
2017-05-30T20:51:03.736Z,1012.68
2017-05-30T20:53:05.782Z,1012.68
2017-05-30T20:55:07.341Z,1012.71
2017-05-30T20:57:08.864Z,1012.75
2017-05-30T20:59:10.955Z,1012.73
2017-05-30T21:01:12.488Z,1012.78
2017-05-30T21:03:14.035Z,1012.76
2017-05-30T21:05:16.372Z,1012.77
2017-05-30T21:07:18.184Z,1012.73
2017-05-30T21:09:19.723Z,1012.75
2017-05-30T21:11:21.135Z,1012.77
2017-05-30T21:13:22.823Z,1012.73
2017-05-30T21:15:25.074Z,1012.72
2017-05-30T21:17:26.501Z,1012.75
2017-05-30T21:19:27.985Z,1012.76
2017-05-30T21:21:29.465Z,1012.73
2017-05-30T21:23:31.553Z,1012.71
2017-05-30T21:25:33.105Z,1012.76
2017-05-30T21:27:34.720Z,1012.78
2017-05-30T21:29:36.977Z,1012.74
2017-05-30T21:31:38.434Z,1012.79
2017-05-30T21:33:39.922Z,1012.86
2017-05-30T21:35:41.819Z,1012.87
2017-05-30T21:37:43.801Z,1012.87
2017-05-30T21:39:45.797Z,1012.92
2017-05-30T21:41:47.951Z,1012.92
2017-05-30T21:43:49.483Z,1012.92
2017-05-30T21:45:50.999Z,1012.96
2017-05-30T21:47:52.460Z,1012.96
2017-05-30T21:49:54.757Z,1012.96
2017-05-30T21:51:56.823Z,1012.96
2017-05-30T21:53:58.999Z,1013.00
2017-05-30T21:56:01.001Z,1013.00
2017-05-30T21:58:02.933Z,1013.00
2017-05-30T22:00:05.173Z,1013.08
2017-05-30T22:02:07.377Z,1013.07
2017-05-30T22:04:09.197Z,1013.09
2017-05-30T22:06:11.110Z,1013.12
2017-05-30T22:08:13.331Z,1013.13
2017-05-30T22:10:14.838Z,1013.18
2017-05-30T22:12:16.292Z,1013.16
2017-05-30T22:14:17.827Z,1013.19
2017-05-30T22:16:19.593Z,1013.26
2017-05-30T22:18:21.158Z,1013.28
2017-05-30T22:20:23.412Z,1013.27
2017-05-30T22:22:25.622Z,1013.24
2017-05-30T22:24:27.890Z,1013.29
2017-05-30T22:26:29.344Z,1013.29
2017-05-30T22:28:30.842Z,1013.26
2017-05-30T22:30:32.429Z,1013.30
2017-05-30T22:32:34.434Z,1013.35
2017-05-30T22:34:35.966Z,1013.32
2017-05-30T22:36:37.451Z,1013.31
2017-05-30T22:38:39.000Z,1013.34
2017-05-30T22:40:40.686Z,1013.33
2017-05-30T22:42:42.810Z,1013.39
2017-05-30T22:44:44.304Z,1013.43
2017-05-30T22:46:45.768Z,1013.43
2017-05-30T22:48:47.410Z,1013.43
2017-05-30T22:50:49.512Z,1013.43
2017-05-30T22:52:51.029Z,1013.37
2017-05-30T22:54:52.614Z,1013.41
2017-05-30T22:56:54.263Z,1013.39
2017-05-30T22:58:55.760Z,1013.41
2017-05-30T23:00:58.015Z,1013.39
2017-05-30T23:02:59.541Z,1013.34
2017-05-30T23:05:01.674Z,1013.36
2017-05-30T23:07:03.642Z,1013.35
2017-05-30T23:09:05.994Z,1013.31
2017-05-30T23:11:07.587Z,1013.30
2017-05-30T23:13:09.076Z,1013.32
2017-05-30T23:15:10.620Z,1013.31
2017-05-30T23:17:12.101Z,1013.33
2017-05-30T23:19:14.314Z,1013.37
2017-05-30T23:21:15.852Z,1013.36
2017-05-30T23:23:17.932Z,1013.40
2017-05-30T23:25:19.437Z,1013.42
2017-05-30T23:27:21.030Z,1013.46
2017-05-30T23:29:22.467Z,1013.45
2017-05-30T23:31:24.048Z,1013.45
2017-05-30T23:33:25.718Z,1013.41
2017-05-30T23:35:27.709Z,1013.42
2017-05-30T23:37:29.195Z,1013.41
2017-05-30T23:39:30.674Z,1013.40
2017-05-30T23:41:32.174Z,1013.41
2017-05-30T23:43:34.373Z,1013.44
2017-05-30T23:45:36.443Z,1013.41
2017-05-30T23:47:38.437Z,1013.42
2017-05-30T23:49:39.904Z,1013.40
2017-05-30T23:51:41.402Z,1013.39
2017-05-30T23:53:43.425Z,1013.41
2017-05-30T23:55:44.854Z,1013.42
2017-05-30T23:57:46.512Z,1013.44
2017-05-30T23:59:47.947Z,1013.43
